Aeroporto :
LOGIN :

Iscrizione | Disclaimer

   EN    FR    IT 

 










Sommario :    VFR   VFR Marginale   IFR   IFR Intensivo   IFR Molto Intensivo
Visibilità : 
Base nubi : 
>= 8 km
>= 3000ft
5 / 8 km
1000 / 3000 ft
1500m / 5 km
500 / 1000 ft
800 / 1500m
200 / 500 ft
< 800m
< 200 ft
Simboli :   Temporali  Nebbia  Neve Forte  Precipitazioni Forti  Vento > 20 kt
SIGMETs :   Varie  Temporali  Ghiacco  Turbolenza  Onda orograficha  Ceneri Vulcaniche






- Altitudine del aeroporto : 129 ft
- Codice IATA : ZCN


ETHC - Celle

ULTIMO METAR :
  • 151620Z 02004KT 9999 FEW012 FEW030CB BKN050 16/13 Q1013 RESHRA BLU FCST CNL

METARs OBSOLETI :
  • 151548Z 32009KT 9000 -SHRA BKN030CB BKN100 16/11 Q1013 RESHRA BLU BLU+ TEMPO GRN
  • 151543Z 26008KT 5000 +SHRA BKN030CB 18/11 Q1013 WHT BLU+ TEMPO GRN
  • 151520Z 22006KT 9999 VCSH FEW029 SCT033CB 19/11 Q1013 BLU+BLU+ TEMPO GRN
  • 151420Z 19006KT 9999 FEW028 SCT090 19/12 Q1013 BLU+BLU+ TEMPO GRN

TAF TAF ETHC
Valido dal 15 a 14 ore il 15 a 23 ore UTC


151319Z 1514/1523 28005KT 9999 NSW BKN040
TEMPO 1514/1517 32007KT 4000 SHRA FEW010 BKN020
PROB30 1514/1516 33010G20KT 2500 TSRA SCT010 BKN015CB



MetMap, La meteo Aeronautica in un colpo d'occhio ! - Copyright ORBIFLY Dicembre 2007 - Disclaimer

ORBIFLY MET'MAP TEAM :

Programmazione e sviluppo : Alexandra Zaïnal
Concezione : Baudouin d'Aumeries
Aiuto per la programmazione : Marc-Olivier Méhu
Supporto tecnico e logistico : Manuel Goepfert
Aiuto per la traduzione : Arnaldo La Scala

Contatto : metmap@orbifly.com




FONTI E CREDITI :

   NOAA